Time;durP1;ratioP1;P1;durP2;ratioP2;P2;SDS_P1;SDS_P2;PMS_P1;PMS_P2;Temp;Humidity;BMP_temperature;BMP_pressure;BME280_temperature;BME280_humidity;BME280_pressure;Samples;Min_cycle;Max_cycle;Signal;HPM_P1;HPM_P2
2023/01/14 00:01:42;;;;;;;15.27;2.92;;;;;;;11.04;56.88;101379.47;4952904;28;114207;-68
2023/01/14 00:04:09;;;;;;;12.02;2.55;;;;;;;11.03;57.19;101382.16;4959839;28;113796;-68
2023/01/14 00:06:36;;;;;;;17.02;3.00;;;;;;;11.00;56.97;101383.16;4960478;28;123892;-68
2023/01/14 00:09:11;;;;;;;20.27;3.40;;;;;;;10.97;57.20;101383.25;4962968;28;123735;-68
2023/01/14 00:11:48;;;;;;;14.07;2.85;;;;;;;10.96;57.28;101389.47;4959612;28;114152;-68
2023/01/14 00:14:36;;;;;;;12.18;2.85;;;;;;;10.92;57.10;101393.16;4951343;28;113841;-67
2023/01/14 00:17:03;;;;;;;16.00;3.17;;;;;;;10.91;57.22;101400.25;4957485;28;124097;-68
2023/01/14 00:19:30;;;;;;;13.93;3.00;;;;;;;10.90;57.24;101408.25;4961845;28;123858;-68
2023/01/14 00:21:57;;;;;;;15.27;3.03;;;;;;;10.90;57.29;101408.25;4963556;28;114432;-67
2023/01/14 00:24:24;;;;;;;14.40;2.83;;;;;;;10.92;57.30;101422.31;4961609;28;113711;-67
2023/01/14 00:26:54;;;;;;;18.15;2.88;;;;;;;10.91;57.63;101420.59;4960517;28;123737;-67
2023/01/14 00:29:27;;;;;;;13.73;3.20;;;;;;;10.93;57.32;101429.34;4958436;28;123025;-68
2023/01/14 00:31:56;;;;;;;20.88;3.33;;;;;;;10.94;57.51;101420.47;4960611;28;114209;-67
2023/01/14 00:34:25;;;;;;;14.52;3.17;;;;;;;10.96;57.55;101418.63;4964104;28;113170;-67
2023/01/14 00:36:53;;;;;;;14.32;3.38;;;;;;;10.98;57.35;101427.41;4963282;28;123734;-67
2023/01/14 00:39:21;;;;;;;12.80;3.03;;;;;;;10.99;57.37;101434.41;4961697;28;124601;-68
2023/01/14 00:41:48;;;;;;;19.02;3.22;;;;;;;11.00;57.19;101430.88;4963190;28;115237;-68
2023/01/14 00:44:16;;;;;;;16.52;3.10;;;;;;;11.01;57.33;101421.97;4957456;28;115203;-68
2023/01/14 00:46:43;;;;;;;21.02;3.00;;;;;;;11.00;57.23;101420.25;4961776;28;124977;-68
2023/01/14 00:49:17;;;;;;;14.55;3.40;;;;;;;11.01;57.26;101421.97;4958931;28;123562;-68
2023/01/14 00:51:46;;;;;;;16.60;2.70;;;;;;;11.02;57.41;101418.41;4958132;28;114548;-68
2023/01/14 00:54:13;;;;;;;14.23;3.13;;;;;;;11.02;57.34;101423.72;4962845;28;113787;-68
2023/01/14 00:56:40;;;;;;;16.30;2.97;;;;;;;11.03;57.28;101425.44;4957548;28;123838;-67
2023/01/14 00:59:18;;;;;;;14.00;2.67;;;;;;;11.05;57.25;101431.53;4965199;28;123124;-68
2023/01/14 01:01:46;;;;;;;13.90;2.85;;;;;;;11.07;57.22;101421.72;4977696;28;114044;-68
2023/01/14 01:04:13;;;;;;;14.38;2.67;;;;;;;11.06;57.12;101430.63;4961842;28;113306;-68
2023/01/14 01:06:40;;;;;;;14.73;2.85;;;;;;;11.03;56.95;101430.72;4952752;28;123108;-68
2023/01/14 01:09:08;;;;;;;14.00;3.63;;;;;;;11.01;56.90;101431.72;4964873;28;124258;-68
2023/01/14 01:11:38;;;;;;;16.65;3.30;;;;;;;11.00;57.08;101436.16;4956575;28;113814;-68
2023/01/14 01:14:05;;;;;;;21.08;3.35;;;;;;;11.00;57.02;101436.16;4957520;28;113814;-67
2023/01/14 01:16:32;;;;;;;17.25;3.53;;;;;;;10.98;57.13;101448.63;4961314;28;123375;-68
2023/01/14 01:18:59;;;;;;;15.93;2.95;;;;;;;10.96;57.02;101450.41;4962795;28;122954;-67
2023/01/14 01:21:26;;;;;;;16.60;3.15;;;;;;;10.94;56.80;101440.81;4962631;28;113544;-67
2023/01/14 01:23:54;;;;;;;20.85;4.10;;;;;;;10.90;56.94;101440.06;4962203;28;113152;-68
2023/01/14 01:26:24;;;;;;;23.13;3.13;;;;;;;10.85;56.89;101442.00;4957959;28;123321;-67
2023/01/14 01:28:54;;;;;;;16.05;3.00;;;;;;;10.79;56.96;101442.22;4959659;28;124554;-69
2023/01/14 01:31:23;;;;;;;18.20;3.40;;;;;;;10.77;57.03;101444.06;4958305;28;116213;-68
2023/01/14 01:33:53;;;;;;;21.55;3.40;;;;;;;10.71;57.22;101443.38;4958873;28;114218;-68
2023/01/14 01:36:30;;;;;;;20.20;3.85;;;;;;;10.68;57.00;101435.56;4967022;28;124374;-68
2023/01/14 01:38:58;;;;;;;18.23;3.80;;;;;;;10.65;57.29;101435.66;4962449;28;122881;-70
2023/01/14 01:41:28;;;;;;;23.52;3.35;;;;;;;10.62;57.20;101430.44;4963650;28;114566;-68
2023/01/14 01:44:07;;;;;;;14.95;3.00;;;;;;;10.57;57.09;101432.41;4963708;28;114130;-68
2023/01/14 01:46:36;;;;;;;16.73;2.90;;;;;;;10.54;57.22;101437.81;4962955;28;124618;-68
2023/01/14 01:49:08;;;;;;;18.35;3.67;;;;;;;10.51;57.38;101427.34;4955628;28;124109;-68
2023/01/14 01:51:45;;;;;;;20.95;3.40;;;;;;;10.46;57.29;101434.59;4964145;28;114269;-68
2023/01/14 01:54:12;;;;;;;18.98;3.22;;;;;;;10.42;57.52;101432.97;4955545;28;114350;-68
2023/01/14 01:56:46;;;;;;;16.65;3.53;;;;;;;10.40;57.43;101418.91;4960993;28;123182;-68
2023/01/14 01:59:18;;;;;;;20.58;3.97;;;;;;;10.38;57.42;101431.31;4960658;28;123231;-68
2023/01/14 02:01:47;;;;;;;22.90;3.45;;;;;;;10.36;57.66;101427.88;4965321;28;114225;-68
2023/01/14 02:04:14;;;;;;;19.45;3.30;;;;;;;10.33;57.62;101435.00;4950537;28;113178;-68
2023/01/14 02:06:42;;;;;;;18.02;3.25;;;;;;;10.31;57.62;101436.84;4964672;28;124471;-68
2023/01/14 02:09:11;;;;;;;22.13;2.90;;;;;;;10.29;57.57;101437.78;4963396;28;124080;-68
2023/01/14 02:11:57;;;;;;;20.40;3.63;;;;;;;10.26;57.88;101433.44;4959481;28;113400;-68
2023/01/14 02:14:47;;;;;;;18.17;3.50;;;;;;;10.21;57.87;101435.41;4979915;28;113707;-68
2023/01/14 02:17:39;;;;;;;20.88;3.03;;;;;;;10.19;57.89;101426.66;4964111;28;123138;-68
2023/01/14 02:20:21;;;;;;;19.48;3.10;;;;;;;10.16;58.07;101416.16;4965049;28;123470;-68
2023/01/14 02:23:20;;;;;;;18.95;3.65;;;;;;;10.14;58.04;101412.69;4964000;28;115163;-67
2023/01/14 02:26:08;;;;;;;20.17;3.60;;;;;;;10.10;57.88;101411.94;4957134;28;115018;-68
2023/01/14 02:28:58;;;;;;;18.10;3.10;;;;;;;10.10;58.13;101405.78;4960885;28;124173;-68
2023/01/14 02:31:34;;;;;;;21.33;3.67;;;;;;;10.09;57.93;101398.75;4962526;28;122906;-68
2023/01/14 02:34:10;;;;;;;21.40;3.38;;;;;;;10.07;58.10;101390.00;4962146;28;113784;-68
2023/01/14 02:36:47;;;;;;;22.02;3.03;;;;;;;10.07;58.28;101379.41;4968691;28;114457;-68
2023/01/14 02:39:21;;;;;;;25.83;3.58;;;;;;;10.07;58.06;101377.63;4965769;28;124627;-67
2023/01/14 02:44:57;;;;;;;18.90;3.53;;;;;;;10.02;58.29;101344.28;4961071;28;113380;-68
2023/01/14 02:47:26;;;;;;;23.23;3.58;;;;;;;10.02;58.35;101344.28;4958790;28;113397;-68
2023/01/14 02:49:57;;;;;;;19.35;2.83;;;;;;;10.01;58.34;101339.94;4961356;28;124330;-68
2023/01/14 02:52:25;;;;;;;26.08;4.53;;;;;;;10.00;58.74;101330.25;4958250;28;124083;-69
2023/01/14 02:54:57;;;;;;;17.10;3.25;;;;;;;10.00;58.39;101335.56;4959169;28;113353;-68
2023/01/14 02:57:46;;;;;;;18.15;3.30;;;;;;;9.99;58.62;101336.47;4977453;28;113954;-68
2023/01/14 03:00:21;;;;;;;20.90;3.17;;;;;;;9.98;58.48;101332.09;4963314;28;123373;-68
2023/01/14 03:03:11;;;;;;;21.80;3.35;;;;;;;9.96;58.54;101340.09;4962415;28;123054;-68
2023/01/14 03:06:20;;;;;;;22.20;3.50;;;;;;;9.94;58.36;101344.56;4957641;28;114016;-67
2023/01/14 03:09:09;;;;;;;20.55;3.50;;;;;;;9.90;58.23;101348.25;4956045;28;113338;-68
2023/01/14 03:11:43;;;;;;;15.60;3.20;;;;;;;9.88;58.28;101342.13;4963569;28;126329;-67
2023/01/14 03:14:19;;;;;;;21.33;3.00;;;;;;;9.85;58.58;101331.66;4956158;28;123214;-68
2023/01/14 03:17:06;;;;;;;27.00;4.10;;;;;;;9.82;58.69;101348.50;4957272;28;96960;-68
2023/01/14 03:19:45;;;;;;;22.05;3.35;;;;;;;9.80;58.89;101333.59;4964176;28;114204;-68
2023/01/14 03:22:12;;;;;;;19.60;3.22;;;;;;;9.79;58.70;101332.72;4966680;28;123803;-68
2023/01/14 03:24:44;;;;;;;21.70;3.88;;;;;;;9.79;58.59;101322.13;4971510;28;122698;-67
2023/01/14 03:27:24;;;;;;;20.40;3.63;;;;;;;9.77;58.87;101318.69;4959545;28;113309;-68
2023/01/14 03:29:59;;;;;;;22.15;4.57;;;;;;;9.75;59.03;101320.53;4952134;28;114348;-68
2023/01/14 03:32:31;;;;;;;23.40;3.30;;;;;;;9.75;58.89;101320.53;4962644;28;123421;-68
2023/01/14 03:34:58;;;;;;;18.67;3.40;;;;;;;9.72;58.95;101315.34;4960123;28;123924;-68
2023/01/14 03:37:29;;;;;;;26.05;3.10;;;;;;;9.72;58.98;101304.78;4959816;28;113568;-68
2023/01/14 03:39:58;;;;;;;17.83;3.10;;;;;;;9.71;59.00;101308.31;4964233;28;113997;-68
2023/01/14 03:42:29;;;;;;;21.60;3.28;;;;;;;9.71;58.89;101303.03;4959363;28;124260;-68
2023/01/14 03:45:10;;;;;;;21.80;3.47;;;;;;;9.69;59.06;101304.88;4962363;28;124421;-67
2023/01/14 03:47:38;;;;;;;21.48;3.20;;;;;;;9.69;59.05;101300.44;4964124;28;114482;-68
2023/01/14 03:50:10;;;;;;;20.17;3.78;;;;;;;9.71;59.13;101303.03;4960051;28;113932;-68
2023/01/14 03:53:06;;;;;;;20.50;3.40;;;;;;;9.69;59.27;101294.28;4961384;28;124167;-68
2023/01/14 03:55:48;;;;;;;23.23;3.17;;;;;;;9.69;59.29;101294.28;4929839;28;122869;-68
2023/01/14 03:58:19;;;;;;;16.55;3.17;;;;;;;9.68;59.27;101293.44;4961172;28;113902;-68
2023/01/14 04:01:03;;;;;;;19.25;3.25;;;;;;;9.68;59.37;101284.59;4962775;28;114534;-68
2023/01/14 04:03:31;;;;;;;24.17;3.60;;;;;;;9.68;59.40;101281.97;4956801;28;124794;-68
2023/01/14 04:05:59;;;;;;;13.60;2.80;;;;;;;9.68;59.38;101277.56;4960187;28;124698;-69
2023/01/14 04:08:26;;;;;;;15.48;3.17;;;;;;;9.69;59.46;101278.41;4963316;28;114061;-68
2023/01/14 04:10:53;;;;;;;20.48;2.85;;;;;;;9.70;59.78;101274.84;4962013;28;115196;-69
2023/01/14 04:16:06;;;;;;;16.20;2.88;;;;;;;9.70;59.51;101261.63;4960647;28;125100;-68
2023/01/14 04:18:33;;;;;;;15.63;3.17;;;;;;;9.68;60.04;101256.41;4968641;28;114275;-69
2023/01/14 04:21:00;;;;;;;17.00;2.90;;;;;;;9.70;59.94;101253.69;4959017;28;114351;-68
2023/01/14 04:23:27;;;;;;;21.08;3.78;;;;;;;9.71;59.93;101244.84;4960642;28;123617;-69
2023/01/14 04:25:56;;;;;;;18.60;3.15;;;;;;;9.74;59.63;101239.47;4960891;28;123620;-69
2023/01/14 04:28:23;;;;;;;21.05;2.95;;;;;;;9.77;60.01;101236.69;4961233;28;114711;-69
2023/01/14 04:30:50;;;;;;;16.63;3.03;;;;;;;9.79;60.05;101226.91;4960334;28;113550;-68
2023/01/14 04:33:18;;;;;;;18.42;3.50;;;;;;;9.81;60.04;101219.78;4967655;28;124416;-69
2023/01/14 04:35:48;;;;;;;20.38;2.90;;;;;;;9.83;60.09;101215.31;4956551;28;124338;-69
2023/01/14 04:38:17;;;;;;;20.63;3.40;;;;;;;9.85;59.87;101221.41;4966715;28;114326;-68
2023/01/14 04:40:44;;;;;;;17.17;3.30;;;;;;;9.87;59.95;101209.00;4955902;28;114425;-69
2023/01/14 04:43:11;;;;;;;12.90;2.38;;;;;;;9.88;60.05;101215.16;4963267;28;123166;-69
2023/01/14 04:45:38;;;;;;;23.98;2.78;;;;;;;9.90;60.01;101214.16;4963303;28;125432;-69
2023/01/14 04:48:05;;;;;;;15.63;2.72;;;;;;;9.91;60.13;101210.59;4948315;28;113834;-69
2023/01/14 04:50:33;;;;;;;19.65;3.33;;;;;;;9.94;59.92;101210.50;4957947;28;113891;-69
2023/01/14 04:53:05;;;;;;;17.48;2.50;;;;;;;9.95;59.99;101195.50;4953230;28;123050;-69
2023/01/14 04:55:37;;;;;;;20.02;3.20;;;;;;;9.93;60.03;101187.59;4960485;28;124169;-67
2023/01/14 04:58:05;;;;;;;22.15;2.78;;;;;;;9.97;59.94;101171.63;4957040;28;115250;-68
2023/01/14 05:00:33;;;;;;;20.85;2.78;;;;;;;9.97;59.89;101176.91;4963146;28;114917;-67
2023/01/14 05:03:07;;;;;;;17.38;2.70;;;;;;;9.98;60.13;101183.91;4956241;28;124394;-67
2023/01/14 05:05:36;;;;;;;17.85;2.33;;;;;;;9.98;60.00;101178.63;4959616;28;123813;-67
2023/01/14 05:08:05;;;;;;;17.58;2.72;;;;;;;9.99;60.00;101175.06;4965818;28;117593;-67
2023/01/14 05:10:33;;;;;;;13.35;2.42;;;;;;;9.98;60.01;101168.03;4963946;28;114062;-67
2023/01/14 05:13:02;;;;;;;16.60;2.85;;;;;;;9.99;59.91;101169.78;4957692;28;123883;-67
2023/01/14 05:15:32;;;;;;;15.23;2.58;;;;;;;10.01;60.12;101167.94;4959941;28;123791;-67
2023/01/14 05:18:00;;;;;;;16.73;3.10;;;;;;;10.00;60.08;101163.53;4963985;28;114100;-67
2023/01/14 05:20:27;;;;;;;11.52;2.95;;;;;;;10.00;59.98;101150.31;4962467;28;113352;-67
2023/01/14 05:23:03;;;;;;;21.40;3.33;;;;;;;9.99;59.71;101153.91;4964482;28;124210;-67
2023/01/14 05:25:31;;;;;;;;;;;;;;;9.99;59.87;101148.63;4959585;28;123702;-67
2023/01/14 05:27:59;;;;;;;16.27;2.60;;;;;;;10.01;59.96;101141.47;4957075;28;114615;-67
2023/01/14 05:30:27;;;;;;;20.42;2.83;;;;;;;10.00;60.05;101140.63;4952158;28;113971;-68
2023/01/14 05:32:54;;;;;;;17.00;2.97;;;;;;;10.01;59.95;101136.19;4960282;28;124833;-68
2023/01/14 05:35:22;;;;;;;16.02;2.90;;;;;;;10.02;60.16;101127.31;4958702;28;124063;-67
2023/01/14 05:37:50;;;;;;;15.65;2.63;;;;;;;10.02;60.22;101127.31;4963646;28;114319;-68
2023/01/14 05:40:17;;;;;;;16.75;2.58;;;;;;;10.03;60.19;101114.03;4965543;28;114250;-68
2023/01/14 05:45:48;;;;;;;;;;;;;;;10.07;59.89;101096.25;4949904;28;124371;-68
2023/01/14 05:48:17;;;;;;;17.00;2.58;;;;;;;10.08;60.03;101090.91;4955650;28;115521;-68
2023/01/14 05:50:44;;;;;;;15.98;2.38;;;;;;;10.09;60.07;101089.97;4960543;28;114679;-71
2023/01/14 05:53:11;;;;;;;15.82;2.58;;;;;;;10.10;60.16;101075.81;4955831;28;123880;-68
2023/01/14 05:55:39;;;;;;;18.02;2.88;;;;;;;10.12;60.02;101065.19;4958715;28;124517;-68
2023/01/14 05:58:06;;;;;;;12.50;2.80;;;;;;;10.14;60.07;101058.03;4956427;28;114621;-68
2023/01/14 06:06:21;;;;;;;18.67;2.45;;;;;;;10.15;59.95;101033.28;4962698;28;122843;-68
2023/01/14 06:08:53;;;;;;;16.27;2.72;;;;;;;10.17;59.91;101026.16;4961788;28;114040;-68
2023/01/14 06:11:21;;;;;;;13.38;2.22;;;;;;;10.19;59.86;101029.59;4961012;28;114248;-68
2023/01/14 06:13:50;;;;;;;14.65;2.50;;;;;;;10.21;59.83;101011.88;4957593;28;123708;-68
2023/01/14 06:16:18;;;;;;;15.82;2.70;;;;;;;10.23;59.77;101014.47;4959735;28;123756;-68
2023/01/14 06:18:45;;;;;;;19.13;2.88;;;;;;;10.24;59.85;101006.44;4962271;28;114303;-68
2023/01/14 06:21:22;;;;;;;12.98;2.53;;;;;;;10.26;59.77;101007.22;4960033;28;114092;-68
2023/01/14 06:23:49;;;;;;;17.02;2.50;;;;;;;10.27;59.82;101001.03;4962912;28;122070;-68
2023/01/14 06:26:18;;;;;;;11.98;2.53;;;;;;;10.27;59.78;100995.72;4957883;28;123948;-68
2023/01/14 06:28:46;;;;;;;12.85;2.88;;;;;;;10.28;59.65;100997.47;4958344;28;113325;-68
2023/01/14 06:31:18;;;;;;;14.75;2.92;;;;;;;10.30;59.64;100986.78;4960412;28;114082;-68
2023/01/14 06:33:46;;;;;;;20.80;2.97;;;;;;;10.31;60.02;100981.47;4960013;28;124067;-68
2023/01/14 06:36:13;;;;;;;17.80;3.17;;;;;;;10.32;59.64;100983.22;4963498;28;123679;-68
2023/01/14 06:38:41;;;;;;;14.65;2.42;;;;;;;10.33;59.60;100974.31;4958241;28;115310;-68
2023/01/14 06:41:10;;;;;;;17.95;2.88;;;;;;;10.36;59.52;100969.81;4964015;28;115138;-69
2023/01/14 06:43:41;;;;;;;13.63;2.40;;;;;;;10.37;59.48;100958.31;4964265;28;123972;-68
2023/01/14 06:46:10;;;;;;;16.83;2.22;;;;;;;10.38;59.53;100960.91;4957007;28;123494;-68
2023/01/14 06:48:37;;;;;;;15.52;3.05;;;;;;;10.40;59.49;100960.84;4959480;28;114170;-68
2023/01/14 06:51:07;;;;;;;14.25;2.65;;;;;;;10.41;59.52;100949.31;4965655;28;114270;-68
2023/01/14 06:53:34;;;;;;;16.30;2.70;;;;;;;10.42;59.53;100945.75;4962588;28;123756;-68
2023/01/14 06:56:05;;;;;;;13.75;2.75;;;;;;;10.42;59.65;100928.06;4959615;28;123632;-68
2023/01/14 06:58:32;;;;;;;13.13;2.50;;;;;;;10.43;59.76;100920.97;4958103;28;114160;-68
2023/01/14 07:01:01;;;;;;;19.90;2.60;;;;;;;10.44;59.84;100920.06;4960727;28;114244;-68
2023/01/14 07:03:29;;;;;;;16.40;2.47;;;;;;;10.43;59.76;100915.69;4964788;28;123950;-68
2023/01/14 07:05:59;;;;;;;16.30;2.78;;;;;;;10.42;59.82;100919.28;4969166;28;125325;-68
2023/01/14 07:08:27;;;;;;;13.40;2.15;;;;;;;10.41;59.88;100906.94;4963721;28;114551;-68
2023/01/14 07:10:54;;;;;;;11.75;1.88;;;;;;;10.41;60.12;100896.38;4963728;28;114137;-68
2023/01/14 07:13:22;;;;;;;12.93;2.03;;;;;;;10.41;60.00;100891.06;4960391;28;123511;-68
2023/01/14 07:15:51;;;;;;;10.10;1.90;;;;;;;10.40;60.05;100889.38;4966535;28;123688;-67
2023/01/14 07:18:18;;;;;;;17.92;2.55;;;;;;;10.38;60.05;100870.00;4961207;28;114303;-68
2023/01/14 07:20:46;;;;;;;18.77;2.70;;;;;;;10.37;60.23;100881.53;4966662;28;113906;-67
2023/01/14 07:23:13;;;;;;;20.83;3.08;;;;;;;10.35;60.14;100870.16;4966576;28;124049;-67
2023/01/14 07:25:40;;;;;;;15.32;2.50;;;;;;;10.35;60.17;100870.16;4964280;28;124154;-67
2023/01/14 07:28:07;;;;;;;14.77;2.33;;;;;;;10.33;60.44;100857.84;4955858;28;115048;-67
2023/01/14 07:30:34;;;;;;;14.05;2.10;;;;;;;10.31;60.43;100854.41;4967648;28;114450;-67
2023/01/14 07:33:02;;;;;;;10.80;2.17;;;;;;;10.31;60.37;100841.16;4960276;28;124126;-68
2023/01/14 07:35:30;;;;;;;13.52;1.95;;;;;;;10.29;60.56;100845.63;4963670;28;123850;-67
2023/01/14 07:37:58;;;;;;;14.43;2.10;;;;;;;10.29;60.56;100828.91;4966807;28;114192;-67
2023/01/14 07:40:26;;;;;;;11.55;2.10;;;;;;;10.29;60.69;100813.88;4957682;28;114013;-69
2023/01/14 07:42:58;;;;;;;10.70;1.98;;;;;;;10.29;60.76;100808.59;4958619;28;124107;-69
2023/01/14 07:45:27;;;;;;;14.95;2.53;;;;;;;10.29;60.95;100798.00;4959208;28;124319;-71
2023/01/14 07:47:55;;;;;;;12.15;2.75;;;;;;;10.28;60.99;100796.28;4963385;28;114429;-70
2023/01/14 07:50:23;;;;;;;16.30;2.60;;;;;;;10.30;61.08;100793.53;4959120;28;114774;-70
2023/01/14 07:52:55;;;;;;;14.90;2.33;;;;;;;10.29;61.01;100779.47;4954653;28;122274;-70
2023/01/14 07:55:23;;;;;;;12.38;2.50;;;;;;;10.30;61.01;100782.97;4964701;28;123866;-70
2023/01/14 07:57:51;;;;;;;11.05;2.20;;;;;;;10.30;61.21;100767.06;4959387;28;114493;-70
2023/01/14 08:00:18;;;;;;;19.50;2.55;;;;;;;10.30;61.22;100765.34;4962330;28;113575;-70
2023/01/14 08:02:46;;;;;;;13.13;2.30;;;;;;;10.30;61.02;100762.69;4962063;28;124462;-70
2023/01/14 08:05:13;;;;;;;12.07;2.35;;;;;;;10.32;61.21;100752.00;4962770;28;123675;-70
2023/01/14 08:07:41;;;;;;;13.20;2.38;;;;;;;10.35;61.66;100740.44;4965272;28;114213;-70
2023/01/14 08:10:09;;;;;;;14.55;2.55;;;;;;;10.36;61.65;100726.25;4967292;28;113860;-70
2023/01/14 08:12:37;;;;;;;11.27;2.03;;;;;;;10.37;61.45;100720.91;4959718;28;123998;-70
2023/01/14 08:15:06;;;;;;;9.30;2.58;;;;;;;10.40;61.60;100704.03;4959746;28;123876;-71
2023/01/14 08:17:33;;;;;;;7.18;1.80;;;;;;;10.41;61.69;100711.03;4966877;28;115468;-71
2023/01/14 08:20:01;;;;;;;10.95;2.22;;;;;;;10.42;61.84;100696.88;4968027;28;115168;-70
2023/01/14 08:22:29;;;;;;;12.27;2.00;;;;;;;10.43;61.64;100682.69;4959186;28;124486;-70
2023/01/14 08:24:57;;;;;;;8.57;2.20;;;;;;;10.45;62.00;100675.53;4961467;28;124380;-71
2023/01/14 08:27:26;;;;;;;11.20;2.00;;;;;;;10.47;61.85;100678.97;4961718;28;113780;-71
2023/01/14 08:29:54;;;;;;;6.78;1.60;;;;;;;10.50;61.96;100673.53;4940340;28;112810;-70
2023/01/14 08:32:22;;;;;;;9.05;1.80;;;;;;;10.52;62.13;100661.94;4961820;28;124135;-70
2023/01/14 08:34:50;;;;;;;7.72;1.63;;;;;;;10.56;61.95;100656.50;4962449;28;123637;-70
2023/01/14 08:37:17;;;;;;;7.25;1.80;;;;;;;10.57;62.18;100648.47;4961480;28;114072;-70
2023/01/14 08:39:44;;;;;;;11.43;1.77;;;;;;;10.59;62.13;100637.81;4955949;28;114890;-70
2023/01/14 08:42:11;;;;;;;8.55;1.92;;;;;;;10.61;62.13;100634.16;4960234;28;124153;-71
2023/01/14 08:44:38;;;;;;;11.02;1.67;;;;;;;10.64;62.07;100618.13;4955399;28;124277;-70
2023/01/14 08:47:05;;;;;;;14.25;1.85;;;;;;;10.66;62.17;100616.25;4965730;28;114071;-70
2023/01/14 08:49:32;;;;;;;13.88;2.22;;;;;;;10.68;62.17;100606.44;4958309;28;113029;-70
2023/01/14 08:52:00;;;;;;;6.88;1.85;;;;;;;10.71;62.05;100593.03;4963360;28;123955;-70
2023/01/14 08:54:27;;;;;;;7.70;1.67;;;;;;;10.75;62.18;100592.88;4960994;28;123071;-70
2023/01/14 08:56:55;;;;;;;4.68;1.65;;;;;;;10.77;62.26;100580.41;4964291;28;114525;-70
2023/01/14 08:59:23;;;;;;;10.20;1.98;;;;;;;10.82;62.37;100578.41;4966823;28;114060;-70
2023/01/14 09:01:51;;;;;;;5.25;1.80;;;;;;;10.83;62.23;100562.44;4964184;28;123128;-70
2023/01/14 09:04:27;;;;;;;16.42;2.75;;;;;;;10.86;62.26;100545.53;4964986;28;125079;-70
2023/01/14 09:18:00;;;;;;;6.60;1.70;;;;;;;11.00;62.65;100492.69;4964902;28;113970;-71
2023/01/14 09:20:34;;;;;;;10.48;1.60;;;;;;;11.03;62.60;100489.84;4961341;28;113966;-70
2023/01/14 09:23:03;;;;;;;19.95;2.25;;;;;;;11.06;62.59;100487.06;4964416;28;124011;-70
2023/01/14 09:25:30;;;;;;;13.52;1.90;;;;;;;11.10;62.50;100483.28;4960643;28;123509;-70
2023/01/14 09:27:58;;;;;;;4.95;1.30;;;;;;;11.14;62.63;100488.44;4965571;28;113016;-70
2023/01/14 09:30:26;;;;;;;15.25;2.25;;;;;;;11.17;62.41;100488.25;4940133;28;113361;-71
2023/01/14 09:32:54;;;;;;;4.57;1.10;;;;;;;11.21;62.64;100489.84;4962052;28;123014;-71
2023/01/14 09:35:21;;;;;;;8.43;1.40;;;;;;;11.26;62.57;100469.22;4953968;28;124136;-71
2023/01/14 09:37:48;;;;;;;5.90;1.60;;;;;;;11.28;62.66;100488.53;4968147;28;114522;-70
2023/01/14 09:40:15;;;;;;;9.23;1.65;;;;;;;11.30;62.62;100478.72;4958850;28;113957;-70
2023/01/14 09:42:47;;;;;;;6.90;1.45;;;;;;;11.33;62.60;100478.56;4958306;28;124075;-70
2023/01/14 09:45:25;;;;;;;27.98;3.30;;;;;;;11.35;62.65;100458.13;4945843;28;123696;-70
2023/01/14 09:47:56;;;;;;;3.13;0.88;;;;;;;11.38;62.58;100460.63;4933916;28;114731;-70
2023/01/14 09:50:52;;;;;;;18.13;2.58;;;;;;;11.41;62.69;100444.50;4950338;28;113905;-70
2023/01/14 09:53:35;;;;;;;4.25;1.00;;;;;;;11.43;62.66;100442.66;4959855;28;124747;-70
2023/01/14 09:56:27;;;;;;;3.63;1.08;;;;;;;11.45;62.66;100435.47;4953797;28;124097;-70
2023/01/14 09:59:00;;;;;;;5.68;1.20;;;;;;;11.46;62.73;100426.56;4959227;28;115163;-70
2023/01/14 10:01:50;;;;;;;4.93;0.90;;;;;;;11.47;62.72;100407.06;4963106;28;114939;-70
2023/01/14 10:04:46;;;;;;;2.75;0.95;;;;;;;11.49;62.70;100397.22;4966278;28;123584;-70
2023/01/14 10:07:16;;;;;;;6.60;1.10;;;;;;;11.50;62.84;100385.66;4937974;28;123803;-70
2023/01/14 10:09:48;;;;;;;12.80;1.77;;;;;;;11.53;62.83;100383.78;4945550;28;113847;-71
2023/01/14 10:12:41;;;;;;;3.97;1.17;;;;;;;11.56;62.84;100383.63;4957271;28;113988;-70
2023/01/14 10:15:17;;;;;;;6.60;1.38;;;;;;;11.57;62.79;100374.72;4959233;28;124047;-70
2023/01/14 10:17:56;;;;;;;5.85;1.10;;;;;;;11.59;62.83;100356.94;4967821;28;123766;-70
2023/01/14 10:20:31;;;;;;;3.97;1.20;;;;;;;11.60;62.92;100353.31;4969395;28;113968;-71
2023/01/14 10:23:16;;;;;;;5.20;1.40;;;;;;;11.62;62.80;100340.81;4960529;28;114888;-71
2023/01/14 10:25:51;;;;;;;3.53;1.07;;;;;;;11.62;62.88;100320.47;4966175;28;125090;-70
2023/01/14 10:28:23;;;;;;;5.22;1.20;;;;;;;11.64;62.73;100323.03;4962632;28;123848;-70
2023/01/14 10:30:52;;;;;;;3.80;1.00;;;;;;;11.66;62.92;100307.91;4964759;28;114813;-70
2023/01/14 10:33:21;;;;;;;4.10;1.15;;;;;;;11.67;63.07;100286.56;4962036;28;113703;-71
2023/01/14 10:35:54;;;;;;;3.65;1.08;;;;;;;11.70;63.01;100282.91;4960039;28;124503;-70
2023/01/14 10:38:26;;;;;;;4.90;1.10;;;;;;;11.73;63.01;100274.75;4959347;28;123770;-72
2023/01/14 10:41:05;;;;;;;3.42;1.10;;;;;;;11.74;63.11;100265.84;4949484;28;114512;-70
2023/01/14 10:43:51;;;;;;;6.30;1.40;;;;;;;11.76;63.11;100263.94;4938815;28;114681;-71
2023/01/14 10:46:21;;;;;;;5.07;1.20;;;;;;;11.80;63.15;100259.31;4952068;28;124707;-70
2023/01/14 10:49:03;;;;;;;5.43;1.45;;;;;;;11.81;63.22;100256.59;4950927;28;123507;-69
2023/01/14 10:51:46;;;;;;;4.63;1.00;;;;;;;11.84;63.14;100245.75;4950884;28;114479;-70
2023/01/14 10:54:17;;;;;;;4.28;1.30;;;;;;;11.86;63.24;100238.56;4949883;28;115639;-71
2023/01/14 10:56:51;;;;;;;4.25;1.00;;;;;;;11.90;63.14;100222.50;4950033;28;124052;-70
2023/01/14 10:59:30;;;;;;;3.47;1.20;;;;;;;11.93;63.16;100214.38;4950664;28;123853;-70
2023/01/14 11:01:58;;;;;;;5.70;1.20;;;;;;;11.95;63.32;100200.06;4957323;28;114603;-70
2023/01/14 11:04:45;;;;;;;3.38;1.20;;;;;;;11.99;63.21;100190.94;4946466;28;114637;-70
2023/01/14 11:07:22;;;;;;;4.28;1.10;;;;;;;12.03;63.49;100181.00;4954008;28;123992;-71
2023/01/14 11:09:49;;;;;;;3.50;1.35;;;;;;;12.07;63.19;100183.38;4942089;28;124747;-70
2023/01/14 11:12:28;;;;;;;3.00;1.23;;;;;;;12.09;63.44;100164.69;4955606;28;114550;-71
2023/01/14 11:14:55;;;;;;;2.72;0.90;;;;;;;12.12;63.28;100153.88;4954861;28;113635;-70
2023/01/14 11:17:26;;;;;;;4.78;0.98;;;;;;;12.15;63.55;100143.09;4967634;28;124318;-70
2023/01/14 11:20:21;;;;;;;2.13;0.80;;;;;;;12.18;63.58;100137.56;4968640;28;124414;-70
2023/01/14 11:23:01;;;;;;;4.88;1.00;;;;;;;12.22;63.46;100133.78;4961608;28;115070;-71
2023/01/14 11:25:29;;;;;;;3.83;1.08;;;;;;;12.26;63.61;100113.19;4974914;28;115212;-70
2023/01/14 11:27:59;;;;;;;3.47;0.90;;;;;;;12.30;63.61;100121.81;4983839;28;123874;-71
2023/01/14 11:30:26;;;;;;;3.20;0.90;;;;;;;12.32;63.52;100111.94;4968308;28;123377;-71
2023/01/14 11:32:55;;;;;;;2.28;0.77;;;;;;;12.34;63.65;100110.03;4968010;28;114133;-71
2023/01/14 11:35:28;;;;;;;3.72;0.75;;;;;;;12.38;63.62;100103.59;4964240;28;113916;-71
2023/01/14 11:37:56;;;;;;;4.75;1.48;;;;;;;12.42;63.72;100097.13;4969507;28;122129;-71
2023/01/14 11:43:19;;;;;;;2.92;0.80;;;;;;;12.48;63.51;100086.09;4962753;28;115397;-71
2023/01/14 11:45:46;;;;;;;1.52;0.73;;;;;;;12.50;63.71;100068.25;4937348;28;114285;-70
2023/01/14 11:48:24;;;;;;;3.72;0.90;;;;;;;12.54;63.60;100067.09;4951620;28;124594;-71
2023/01/14 11:51:02;;;;;;;7.10;0.90;;;;;;;12.58;63.72;100055.34;4949927;28;124727;-71
2023/01/14 11:53:45;;;;;;;3.72;0.80;;;;;;;12.61;63.76;100049.81;4963855;28;114719;-73
2023/01/14 11:56:20;;;;;;;1.67;0.60;;;;;;;12.64;63.70;100041.66;4961701;28;112958;-70
2023/01/14 11:58:47;;;;;;;2.38;0.60;;;;;;;12.66;63.61;100029.09;4963516;28;123388;-71
2023/01/14 12:01:39;;;;;;;2.35;0.90;;;;;;;12.70;63.54;100036.88;4971001;28;124462;-72
2023/01/14 12:04:21;;;;;;;2.22;0.70;;;;;;;12.72;63.62;100034.97;4955345;28;114109;-71